Time;durP1;ratioP1;P1;durP2;ratioP2;P2;SDS_P1;SDS_P2;PMS_P1;PMS_P2;Temp;Humidity;BMP_temperature;BMP_pressure;BME280_temperature;BME280_humidity;BME280_pressure;Samples;Min_cycle;Max_cycle;Signal;HPM_P1;HPM_P2
2022/12/25 00:00:38;;;;;;;8.60;4.80;;;;;;;-74.99;39.40;39862.08;102622;1289;1002903;-35
2022/12/25 00:03:04;;;;;;;12.30;4.50;;;;;;;-128.00;-1.00;-1.00;101264;1303;1004661;-35
2022/12/25 00:05:30;;;;;;;8.60;4.50;;;;;;;-128.00;-1.00;-1.00;101280;1303;1004611;-35
2022/12/25 00:07:55;;;;;;;11.90;2.20;;;;;;;-128.00;-1.00;-1.00;101017;1303;1004313;-35
2022/12/25 00:10:21;;;;;;;12.20;5.30;;;;;;;-128.00;-1.00;-1.00;101232;1303;1005443;-36
2022/12/25 00:12:47;;;;;;;7.70;3.40;;;;;;;-128.00;-1.00;-1.00;101269;1303;1004387;-33
2022/12/25 00:15:13;;;;;;;8.30;3.40;;;;;;;-128.00;-1.00;-1.00;101194;1303;1004883;-35
2022/12/25 00:17:39;;;;;;;4.20;1.40;;;;;;;-128.00;-1.00;-1.00;101111;1303;1005016;-32
2022/12/25 00:20:05;;;;;;;9.80;3.10;;;;;;;-128.00;-1.00;-1.00;101316;1303;1004614;-32
2022/12/25 00:22:31;;;;;;;9.20;2.30;;;;;;;-128.00;-1.00;-1.00;101254;1303;1004693;-35
2022/12/25 00:24:57;;;;;;;8.50;3.10;;;;;;;-128.00;-1.00;-1.00;101205;1303;1003779;-31
2022/12/25 00:27:23;;;;;;;5.50;2.80;;;;;;;-128.00;-1.00;-1.00;101127;1303;1004580;-32
2022/12/25 00:29:48;;;;;;;11.80;4.00;;;;;;;-128.00;-1.00;-1.00;101179;1303;1004764;-32
2022/12/25 00:32:14;;;;;;;9.70;3.80;;;;;;;-128.00;-1.00;-1.00;101144;1303;1004992;-32
2022/12/25 00:34:40;;;;;;;8.20;3.80;;;;;;;-128.00;-1.00;-1.00;101134;1303;1005113;-32
2022/12/25 00:37:05;;;;;;;7.30;3.20;;;;;;;-128.00;-1.00;-1.00;101193;1303;1004823;-36
2022/12/25 00:39:31;;;;;;;9.80;3.60;;;;;;;-128.00;-1.00;-1.00;101179;1303;1004061;-32
2022/12/25 00:44:26;;;;;;;7.10;3.60;;;;;;;-128.00;-1.00;-1.00;101143;1303;1005163;-36
2022/12/25 00:46:52;;;;;;;7.20;3.20;;;;;;;-128.00;-1.00;-1.00;101283;1303;1004813;-36
2022/12/25 00:49:17;;;;;;;7.00;3.60;;;;;;;-128.00;-1.00;-1.00;101268;1303;1004513;-36
2022/12/25 00:51:44;;;;;;;6.80;3.90;;;;;;;-128.00;-1.00;-1.00;101212;1303;1004533;-31
2022/12/25 00:54:10;;;;;;;10.00;5.10;;;;;;;-128.00;-1.00;-1.00;101055;1303;1004392;-34
2022/12/25 00:56:36;;;;;;;8.90;2.90;;;;;;;-128.00;-1.00;-1.00;101238;1303;1004719;-31
2022/12/25 00:59:01;;;;;;;9.60;3.60;;;;;;;-128.00;-1.00;-1.00;101256;1303;1004785;-31
2022/12/25 01:01:27;;;;;;;10.00;4.70;;;;;;;-128.00;-1.00;-1.00;101087;1303;1005372;-35
2022/12/25 01:03:54;;;;;;;11.80;4.70;;;;;;;-128.00;-1.00;-1.00;100947;1303;1004569;-35
2022/12/25 01:06:19;;;;;;;8.70;3.10;;;;;;;-128.00;-1.00;-1.00;101092;1303;1004499;-33
2022/12/25 01:11:31;;;;;;;7.30;4.60;;;;;;;-128.00;-1.00;-1.00;101205;1303;1004798;-32
2022/12/25 01:13:56;;;;;;;6.70;4.00;;;;;;;-128.00;-1.00;-1.00;101342;1303;1004675;-32
2022/12/25 01:16:22;;;;;;;13.00;5.30;;;;;;;-128.00;-1.00;-1.00;101172;1303;1004748;-35
2022/12/25 01:18:49;;;;;;;4.90;3.40;;;;;;;-128.00;-1.00;-1.00;101060;1303;1004522;-36
2022/12/25 01:21:15;;;;;;;6.80;3.80;;;;;;;-128.00;-1.00;-1.00;101086;1303;1004677;-34
2022/12/25 01:23:42;;;;;;;9.00;3.30;;;;;;;-128.00;-1.00;-1.00;101064;1301;1004404;-32
2022/12/25 01:26:09;;;;;;;6.30;4.00;;;;;;;-128.00;-1.00;-1.00;101226;1303;1004010;-32
2022/12/25 01:28:35;;;;;;;18.90;5.40;;;;;;;-128.00;-1.00;-1.00;101236;1303;1004777;-35
2022/12/25 01:31:01;;;;;;;18.50;3.90;;;;;;;-128.00;-1.00;-1.00;101261;1303;1003966;-32
2022/12/25 01:33:27;;;;;;;10.80;5.90;;;;;;;-128.00;-1.00;-1.00;101157;1303;1004828;-35
2022/12/25 01:35:53;;;;;;;9.50;3.20;;;;;;;-128.00;-1.00;-1.00;101090;1303;1004820;-32
2022/12/25 01:38:19;;;;;;;8.60;4.20;;;;;;;-128.00;-1.00;-1.00;101211;1303;1003738;-32
2022/12/25 01:40:45;;;;;;;7.90;3.80;;;;;;;-128.00;-1.00;-1.00;100949;1303;1005503;-36
2022/12/25 01:43:23;;;;;;;7.20;3.20;;;;;;;-128.00;-1.00;-1.00;101295;1303;1004579;-35
2022/12/25 01:45:51;;;;;;;10.60;3.50;;;;;;;-128.00;-1.00;-1.00;101236;1303;1004526;-32
2022/12/25 01:48:19;;;;;;;11.10;4.80;;;;;;;-128.00;-1.00;-1.00;101250;1303;1003952;-35
2022/12/25 01:50:48;;;;;;;11.70;4.00;;;;;;;-128.00;-1.00;-1.00;101257;1303;1003975;-35
2022/12/25 01:53:15;;;;;;;8.10;3.80;;;;;;;-128.00;-1.00;-1.00;101296;1303;1003498;-32
2022/12/25 01:55:40;;;;;;;20.70;5.60;;;;;;;-128.00;-1.00;-1.00;101241;1303;1005075;-32
2022/12/25 01:58:06;;;;;;;7.10;3.30;;;;;;;-128.00;-1.00;-1.00;101237;1303;1004338;-35
2022/12/25 02:00:32;;;;;;;7.90;2.30;;;;;;;-128.00;-1.00;-1.00;101272;1303;1004662;-36
2022/12/25 02:02:58;;;;;;;7.10;3.10;;;;;;;-128.00;-1.00;-1.00;101100;1303;1004671;-35
2022/12/25 02:05:26;;;;;;;12.60;4.10;;;;;;;-128.00;-1.00;-1.00;101257;1303;1004578;-35
2022/12/25 02:07:52;;;;;;;6.40;3.50;;;;;;;-128.00;-1.00;-1.00;101151;1303;1003508;-32
2022/12/25 02:10:18;;;;;;;10.60;4.20;;;;;;;-128.00;-1.00;-1.00;101133;1303;1004661;-36
2022/12/25 02:12:44;;;;;;;10.70;5.00;;;;;;;-128.00;-1.00;-1.00;100836;1304;1004363;-35
2022/12/25 02:15:12;;;;;;;10.90;4.20;;;;;;;-128.00;-1.00;-1.00;101183;1303;1004303;-32
2022/12/25 02:17:45;;;;;;;4.50;3.30;;;;;;;-128.00;-1.00;-1.00;101226;1303;1004457;-33
2022/12/25 02:20:22;;;;;;;4.30;2.50;;;;;;;-128.00;-1.00;-1.00;101213;1296;1004637;-35
2022/12/25 02:23:03;;;;;;;7.40;3.70;;;;;;;-128.00;-1.00;-1.00;101148;1297;1003999;-32
2022/12/25 02:25:56;;;;;;;5.20;3.00;;;;;;;-128.00;-1.00;-1.00;101144;1303;1005088;-35
2022/12/25 02:28:27;;;;;;;7.20;3.60;;;;;;;-128.00;-1.00;-1.00;101321;1303;1004642;-35
2022/12/25 02:30:58;;;;;;;5.00;2.20;;;;;;;-128.00;-1.00;-1.00;101153;1303;1004946;-36
2022/12/25 02:36:04;;;;;;;12.00;5.50;;;;;;;-128.00;-1.00;-1.00;101245;1303;1004602;-35
2022/12/25 02:38:32;;;;;;;9.10;3.20;;;;;;;-128.00;-1.00;-1.00;101279;1303;1005003;-35
2022/12/25 02:40:59;;;;;;;10.70;4.20;;;;;;;-128.00;-1.00;-1.00;101124;1303;1004677;-33
2022/12/25 03:08:36;;;;;;;8.80;4.20;;;;;;;-128.00;-1.00;-1.00;101171;1303;1004822;-33
2022/12/25 03:13:35;;;;;;;5.70;3.70;;;;;;;-128.00;-1.00;-1.00;101152;1303;1004961;-33
2022/12/25 03:18:31;;;;;;;6.70;4.30;;;;;;;-128.00;-1.00;-1.00;101198;1303;1004442;-35
2022/12/25 03:27:01;;;;;;;15.30;6.90;;;;;;;-128.00;-1.00;-1.00;101274;1303;1004390;-32
2022/12/25 03:28:43;;;;;;;15.00;6.80;;;;;;;-128.00;-1.00;-1.00;101063;1303;1004593;-32
2022/12/25 03:31:15;;;;;;;25.10;10.10;;;;;;;-128.00;-1.00;-1.00;101219;1303;1003848;-32
2022/12/25 05:16:20;;;;;;;18.40;7.20;;;;;;;3.59;100.00;99890.51;104467;1304;556195;-32
2022/12/25 05:18:50;;;;;;;9.50;6.30;;;;;;;3.64;100.00;99872.56;104359;1301;408623;-33
2022/12/25 05:21:16;;;;;;;14.80;6.90;;;;;;;3.58;100.00;99872.53;104174;1306;22646;-32
2022/12/25 05:23:47;;;;;;;17.20;6.70;;;;;;;3.62;100.00;99881.93;104644;1298;23194;-35
2022/12/25 05:26:14;;;;;;;9.40;6.30;;;;;;;3.59;100.00;99883.60;104593;1304;22696;-32
2022/12/25 05:28:41;;;;;;;15.40;7.80;;;;;;;3.62;100.00;99884.23;104603;1304;22559;-35
2022/12/25 05:31:07;;;;;;;14.20;7.40;;;;;;;3.63;100.00;99882.88;104719;1302;24266;-34
2022/12/25 05:33:32;;;;;;;13.30;5.60;;;;;;;3.64;100.00;99883.99;104627;1298;22786;-36
2022/12/25 05:36:02;;;;;;;12.80;5.90;;;;;;;3.65;100.00;99880.25;104640;1304;22651;-33
2022/12/25 05:38:28;;;;;;;14.40;5.40;;;;;;;3.64;100.00;99882.77;104674;1298;23162;-35
2022/12/25 05:40:54;;;;;;;9.20;5.10;;;;;;;-48.99;59.60;59929.49;103165;1298;1004652;-35
2022/12/25 05:43:20;;;;;;;6.60;3.70;;;;;;;-128.00;-1.00;-1.00;101058;1305;1004943;-33
2022/12/25 05:45:45;;;;;;;13.60;5.90;;;;;;;-128.00;-1.00;-1.00;101065;1306;1003048;-32
2022/12/25 05:48:11;;;;;;;6.40;4.00;;;;;;;-128.00;-1.00;-1.00;101033;1306;1003566;-36
2022/12/25 05:50:37;;;;;;;14.20;5.30;;;;;;;-128.00;-1.00;-1.00;101121;1306;1005164;-32
2022/12/25 05:53:04;;;;;;;9.80;4.50;;;;;;;-128.00;-1.00;-1.00;101114;1306;1003111;-35
2022/12/25 05:55:33;;;;;;;11.60;7.60;;;;;;;-128.00;-1.00;-1.00;101053;1306;1003388;-32
2022/12/25 05:57:59;;;;;;;11.90;7.30;;;;;;;-128.00;-1.00;-1.00;101161;1306;1003514;-38
2022/12/25 06:00:25;;;;;;;25.00;13.00;;;;;;;-128.00;-1.00;-1.00;101052;1306;1003254;-32
2022/12/25 06:02:51;;;;;;;23.00;10.10;;;;;;;-128.00;-1.00;-1.00;101049;1306;1002860;-33
2022/12/25 06:05:17;;;;;;;26.40;12.80;;;;;;;-128.00;-1.00;-1.00;100971;1306;1002795;-32
2022/12/25 06:07:43;;;;;;;14.80;7.50;;;;;;;-128.00;-1.00;-1.00;100990;1306;1004346;-33
2022/12/25 06:10:09;;;;;;;13.20;6.30;;;;;;;-128.00;-1.00;-1.00;101075;1306;1003463;-30
2022/12/25 06:12:34;;;;;;;12.00;5.80;;;;;;;-128.00;-1.00;-1.00;101069;1306;1002830;-32
2022/12/25 06:15:00;;;;;;;14.10;7.50;;;;;;;-128.00;-1.00;-1.00;101080;1305;1003548;-35
2022/12/25 06:17:26;;;;;;;15.90;8.40;;;;;;;-128.00;-1.00;-1.00;101060;1306;1003491;-32
2022/12/25 06:19:53;;;;;;;44.80;17.90;;;;;;;-128.00;-1.00;-1.00;101068;1305;1003937;-31
2022/12/25 06:22:19;;;;;;;35.40;13.40;;;;;;;-128.00;-1.00;-1.00;101026;1305;1003446;-32
2022/12/25 06:24:45;;;;;;;58.80;14.10;;;;;;;-128.00;-1.00;-1.00;101014;1305;1003328;-35
2022/12/25 06:27:10;;;;;;;21.00;5.50;;;;;;;-128.00;-1.00;-1.00;101103;1305;1002908;-32
2022/12/25 06:29:36;;;;;;;20.90;6.60;;;;;;;-128.00;-1.00;-1.00;101072;1305;1003468;-34
2022/12/25 06:32:02;;;;;;;17.70;6.20;;;;;;;-128.00;-1.00;-1.00;101024;1305;1003479;-31
2022/12/25 06:34:28;;;;;;;27.30;7.00;;;;;;;-128.00;-1.00;-1.00;101023;1306;1003115;-34
2022/12/25 06:36:53;;;;;;;16.90;5.90;;;;;;;-128.00;-1.00;-1.00;101049;1305;1004646;-35
2022/12/25 06:39:20;;;;;;;20.20;7.40;;;;;;;-128.00;-1.00;-1.00;101056;1305;1003234;-32
2022/12/25 06:41:46;;;;;;;12.30;4.90;;;;;;;-128.00;-1.00;-1.00;101029;1305;1003067;-32
2022/12/25 06:44:12;;;;;;;14.70;5.50;;;;;;;-128.00;-1.00;-1.00;101021;1305;1003839;-32
2022/12/25 06:46:38;;;;;;;14.70;5.40;;;;;;;-128.00;-1.00;-1.00;101045;1306;1004775;-34
2022/12/25 06:49:03;;;;;;;21.80;4.70;;;;;;;-128.00;-1.00;-1.00;101067;1306;1003027;-32
2022/12/25 06:51:30;;;;;;;12.80;6.30;;;;;;;-128.00;-1.00;-1.00;100955;1306;1004187;-31
2022/12/25 06:53:56;;;;;;;11.60;4.20;;;;;;;-128.00;-1.00;-1.00;101045;1306;1004174;-35
2022/12/25 06:56:24;;;;;;;24.00;6.80;;;;;;;-128.00;-1.00;-1.00;101129;1306;1002632;-31
2022/12/25 06:58:51;;;;;;;10.20;5.40;;;;;;;-128.00;-1.00;-1.00;101073;1305;1003277;-35
2022/12/25 07:01:20;;;;;;;21.80;7.80;;;;;;;-128.00;-1.00;-1.00;101031;1303;1003161;-34
2022/12/25 07:03:47;;;;;;;22.40;7.80;;;;;;;-128.00;-1.00;-1.00;101046;1306;1002337;-34
2022/12/25 07:06:14;;;;;;;21.60;8.70;;;;;;;-128.00;-1.00;-1.00;101078;1306;1005011;-32
2022/12/25 07:08:39;;;;;;;13.40;8.80;;;;;;;-128.00;-1.00;-1.00;101085;1304;1002424;-31
2022/12/25 07:11:06;;;;;;;21.10;10.20;;;;;;;-128.00;-1.00;-1.00;101062;1305;1002699;-35
2022/12/25 07:13:31;;;;;;;15.90;9.00;;;;;;;-128.00;-1.00;-1.00;101095;1306;1002716;-32
2022/12/25 07:15:58;;;;;;;13.30;9.30;;;;;;;-128.00;-1.00;-1.00;101021;1306;1004518;-35
2022/12/25 07:18:24;;;;;;;7.40;5.20;;;;;;;-128.00;-1.00;-1.00;101033;1305;1005004;-34
2022/12/25 07:20:50;;;;;;;12.20;6.80;;;;;;;-128.00;-1.00;-1.00;101023;1306;1003787;-33
2022/12/25 07:23:15;;;;;;;15.30;7.80;;;;;;;-128.00;-1.00;-1.00;101046;1305;1003143;-33
2022/12/25 07:25:41;;;;;;;15.00;4.30;;;;;;;-128.00;-1.00;-1.00;101027;1306;1003054;-35
2022/12/25 07:28:07;;;;;;;18.10;6.50;;;;;;;-128.00;-1.00;-1.00;101064;1306;1003210;-35
2022/12/25 07:30:32;;;;;;;17.00;7.50;;;;;;;-128.00;-1.00;-1.00;101079;1305;1002741;-36
2022/12/25 07:32:58;;;;;;;17.50;7.50;;;;;;;-128.00;-1.00;-1.00;101007;1306;1004477;-33
2022/12/25 07:35:24;;;;;;;15.00;7.40;;;;;;;-128.00;-1.00;-1.00;101058;1306;1003238;-37
2022/12/25 07:37:50;;;;;;;17.40;6.80;;;;;;;-128.00;-1.00;-1.00;101075;1305;1004389;-32
2022/12/25 07:40:15;;;;;;;15.80;7.90;;;;;;;-128.00;-1.00;-1.00;101022;1306;1002611;-32
2022/12/25 07:42:41;;;;;;;13.60;8.00;;;;;;;-128.00;-1.00;-1.00;101041;1306;1002761;-30
2022/12/25 07:45:07;;;;;;;18.80;8.90;;;;;;;-128.00;-1.00;-1.00;101023;1306;1004278;-33
2022/12/25 07:47:33;;;;;;;23.40;10.50;;;;;;;-128.00;-1.00;-1.00;100996;1306;1003000;-30
2022/12/25 07:49:59;;;;;;;23.80;11.30;;;;;;;-128.00;-1.00;-1.00;101053;1306;1005232;-33
2022/12/25 07:52:25;;;;;;;28.60;17.40;;;;;;;-128.00;-1.00;-1.00;101052;1306;1003552;-36
2022/12/25 07:54:50;;;;;;;35.20;17.80;;;;;;;-128.00;-1.00;-1.00;101045;1305;1004145;-33
2022/12/25 07:57:16;;;;;;;31.00;14.00;;;;;;;-128.00;-1.00;-1.00;101000;1303;1002864;-34
2022/12/25 07:59:42;;;;;;;35.90;13.10;;;;;;;-128.00;-1.00;-1.00;100871;1306;1003517;-34
2022/12/25 08:02:09;;;;;;;26.20;9.90;;;;;;;-128.00;-1.00;-1.00;101074;1306;1003370;-34
2022/12/25 08:04:35;;;;;;;17.90;9.30;;;;;;;-128.00;-1.00;-1.00;101069;1306;1003139;-32
2022/12/25 08:07:00;;;;;;;23.80;10.60;;;;;;;-128.00;-1.00;-1.00;101058;1306;1002801;-31
2022/12/25 08:09:26;;;;;;;181.30;47.70;;;;;;;-128.00;-1.00;-1.00;101010;1306;1003369;-33
2022/12/25 08:11:52;;;;;;;136.30;43.00;;;;;;;-128.00;-1.00;-1.00;101081;1305;1003143;-34
2022/12/25 08:14:18;;;;;;;52.10;21.40;;;;;;;-128.00;-1.00;-1.00;101016;1305;1003864;-36
2022/12/25 08:16:45;;;;;;;45.30;18.00;;;;;;;-128.00;-1.00;-1.00;101054;1306;1002694;-33
2022/12/25 08:19:13;;;;;;;31.50;11.60;;;;;;;-128.00;-1.00;-1.00;101055;1306;1003750;-32
2022/12/25 08:21:39;;;;;;;41.20;17.70;;;;;;;-128.00;-1.00;-1.00;101026;1301;1005566;-32
2022/12/25 08:24:04;;;;;;;32.00;14.20;;;;;;;-128.00;-1.00;-1.00;101057;1304;1003647;-34
2022/12/25 08:26:30;;;;;;;51.80;22.40;;;;;;;-128.00;-1.00;-1.00;101067;1306;1003179;-33
2022/12/25 08:28:56;;;;;;;58.00;28.70;;;;;;;-128.00;-1.00;-1.00;101142;1306;1002901;-37
2022/12/25 08:31:24;;;;;;;51.90;24.90;;;;;;;-128.00;-1.00;-1.00;101009;1306;1004369;-32
2022/12/25 08:33:51;;;;;;;69.20;37.60;;;;;;;-128.00;-1.00;-1.00;101018;1306;1005237;-32
2022/12/25 08:36:17;;;;;;;87.60;41.20;;;;;;;-128.00;-1.00;-1.00;101075;1306;1003272;-33
2022/12/25 08:38:43;;;;;;;49.40;27.60;;;;;;;-128.00;-1.00;-1.00;101042;1306;1003675;-35
2022/12/25 08:41:09;;;;;;;31.80;19.30;;;;;;;-128.00;-1.00;-1.00;101051;1306;1003958;-33
2022/12/25 08:43:35;;;;;;;35.20;18.30;;;;;;;-128.00;-1.00;-1.00;101034;1306;1003164;-33
2022/12/25 08:46:01;;;;;;;32.50;13.20;;;;;;;-128.00;-1.00;-1.00;101055;1305;1002806;-36
2022/12/25 08:48:27;;;;;;;17.00;8.20;;;;;;;-128.00;-1.00;-1.00;101054;1305;1003736;-36
2022/12/25 08:50:53;;;;;;;9.20;6.90;;;;;;;-128.00;-1.00;-1.00;101101;1306;1004387;-33
2022/12/25 08:53:19;;;;;;;11.00;7.60;;;;;;;-128.00;-1.00;-1.00;101026;1306;1003357;-32
2022/12/25 08:55:44;;;;;;;21.50;8.60;;;;;;;-128.00;-1.00;-1.00;101053;1306;1004940;-34
2022/12/25 08:58:10;;;;;;;18.00;7.40;;;;;;;-128.00;-1.00;-1.00;101021;1306;1004663;-31
2022/12/25 09:00:36;;;;;;;11.90;6.40;;;;;;;-128.00;-1.00;-1.00;100972;1306;1002833;-35
2022/12/25 09:03:03;;;;;;;10.20;5.80;;;;;;;-128.00;-1.00;-1.00;101052;1306;1003105;-35
2022/12/25 09:05:28;;;;;;;17.50;8.20;;;;;;;-128.00;-1.00;-1.00;101026;1306;1004159;-33
2022/12/25 09:07:54;;;;;;;10.30;5.60;;;;;;;-128.00;-1.00;-1.00;101010;1306;1004000;-34
2022/12/25 09:10:20;;;;;;;14.40;6.90;;;;;;;-128.00;-1.00;-1.00;100945;1306;1003028;-35
2022/12/25 09:12:46;;;;;;;21.80;7.10;;;;;;;-128.00;-1.00;-1.00;100930;1306;1003130;-32
2022/12/25 09:15:12;;;;;;;10.80;6.40;;;;;;;-128.00;-1.00;-1.00;101042;1306;1003299;-37
2022/12/25 09:17:37;;;;;;;14.20;7.60;;;;;;;-128.00;-1.00;-1.00;101036;1306;1005119;-32
2022/12/25 09:20:05;;;;;;;17.40;7.60;;;;;;;-128.00;-1.00;-1.00;101079;1306;1004041;-33
2022/12/25 09:22:31;;;;;;;16.60;7.20;;;;;;;-128.00;-1.00;-1.00;101022;1306;1003646;-33
2022/12/25 09:24:56;;;;;;;12.20;6.80;;;;;;;-128.00;-1.00;-1.00;101047;1306;1003102;-36
2022/12/25 09:27:22;;;;;;;23.50;7.40;;;;;;;-128.00;-1.00;-1.00;101050;1306;1003418;-33
2022/12/25 09:29:48;;;;;;;16.10;6.80;;;;;;;-128.00;-1.00;-1.00;101008;1306;1005019;-33
2022/12/25 09:32:14;;;;;;;9.40;5.30;;;;;;;-128.00;-1.00;-1.00;101107;1306;1002769;-35
2022/12/25 09:34:40;;;;;;;23.80;8.90;;;;;;;-128.00;-1.00;-1.00;101042;1306;1002545;-33
2022/12/25 09:37:06;;;;;;;18.00;7.40;;;;;;;-128.00;-1.00;-1.00;101047;1306;1003315;-36
2022/12/25 09:39:31;;;;;;;16.50;9.50;;;;;;;-128.00;-1.00;-1.00;101058;1306;1003497;-37
2022/12/25 09:41:59;;;;;;;22.50;7.60;;;;;;;-128.00;-1.00;-1.00;101038;1306;1003723;-33
2022/12/25 09:44:27;;;;;;;9.50;7.10;;;;;;;-128.00;-1.00;-1.00;101067;1304;1003263;-33
2022/12/25 09:46:54;;;;;;;10.40;7.00;;;;;;;-128.00;-1.00;-1.00;101051;1306;1003877;-36
2022/12/25 09:49:44;;;;;;;12.10;7.80;;;;;;;-128.00;-1.00;-1.00;101127;1306;1004779;-33
2022/12/25 09:52:19;;;;;;;9.80;5.80;;;;;;;-128.00;-1.00;-1.00;101030;1306;1003465;-36
2022/12/25 09:55:08;;;;;;;10.30;6.00;;;;;;;-128.00;-1.00;-1.00;101010;1306;1003347;-33
2022/12/25 09:57:34;;;;;;;14.20;6.70;;;;;;;-128.00;-1.00;-1.00;101056;1306;1003928;-36
2022/12/25 10:00:00;;;;;;;20.60;6.10;;;;;;;-128.00;-1.00;-1.00;101074;1306;1002823;-33
2022/12/25 10:02:49;;;;;;;9.60;5.60;;;;;;;-128.00;-1.00;-1.00;101018;1306;1003267;-36
2022/12/25 10:05:35;;;;;;;11.70;6.30;;;;;;;-128.00;-1.00;-1.00;101040;1306;1002751;-34
2022/12/25 10:08:25;;;;;;;12.20;5.70;;;;;;;-128.00;-1.00;-1.00;101048;1306;1003253;-37
2022/12/25 10:10:56;;;;;;;12.80;6.80;;;;;;;-128.00;-1.00;-1.00;101014;1306;1003175;-34
2022/12/25 10:13:50;;;;;;;17.70;5.10;;;;;;;-128.00;-1.00;-1.00;101130;1306;1003571;-37
2022/12/25 10:16:35;;;;;;;10.60;4.80;;;;;;;-128.00;-1.00;-1.00;101025;1303;1003063;-37
2022/12/25 10:19:14;;;;;;;13.80;8.20;;;;;;;-128.00;-1.00;-1.00;101053;1306;1002852;-37
2022/12/25 10:21:40;;;;;;;18.10;8.40;;;;;;;-128.00;-1.00;-1.00;100958;1306;1003803;-37
2022/12/25 10:24:32;;;;;;;12.00;7.90;;;;;;;-128.00;-1.00;-1.00;101044;1305;1004975;-37
2022/12/25 10:26:57;;;;;;;23.20;7.70;;;;;;;-128.00;-1.00;-1.00;101071;1305;1004037;-33
2022/12/25 10:29:25;;;;;;;15.10;6.70;;;;;;;-128.00;-1.00;-1.00;101135;1306;1003541;-36
2022/12/25 10:31:52;;;;;;;20.10;8.60;;;;;;;-128.00;-1.00;-1.00;101098;1305;1003667;-32
2022/12/25 10:34:18;;;;;;;11.00;8.10;;;;;;;-128.00;-1.00;-1.00;101044;1305;1003018;-36
2022/12/25 10:36:44;;;;;;;36.10;9.20;;;;;;;-128.00;-1.00;-1.00;101038;1305;1004033;-32
2022/12/25 10:39:18;;;;;;;29.90;12.10;;;;;;;-128.00;-1.00;-1.00;101100;1306;1004864;-32
2022/12/25 10:42:02;;;;;;;30.70;9.10;;;;;;;-128.00;-1.00;-1.00;100867;1304;1004012;-36
2022/12/25 10:44:27;;;;;;;;;;;;;;;-128.00;-1.00;-1.00;101067;1305;1003547;-36
2022/12/25 10:46:55;;;;;;;14.90;10.70;;;;;;;-128.00;-1.00;-1.00;101014;1305;1004633;-32
2022/12/25 10:49:22;;;;;;;19.00;12.00;;;;;;;-128.00;-1.00;-1.00;101084;1301;1002794;-34
2022/12/25 10:51:48;;;;;;;10.40;7.70;;;;;;;-128.00;-1.00;-1.00;101048;1305;1002955;-36
2022/12/25 10:54:29;;;;;;;12.10;7.20;;;;;;;-128.00;-1.00;-1.00;101079;1301;1003012;-35
2022/12/25 10:56:59;;;;;;;13.10;5.90;;;;;;;-128.00;-1.00;-1.00;101049;1302;1002992;-35
2022/12/25 10:59:26;;;;;;;16.30;6.60;;;;;;;-128.00;-1.00;-1.00;101007;1305;1004885;-36
2022/12/25 11:01:53;;;;;;;20.90;6.70;;;;;;;-128.00;-1.00;-1.00;101079;1305;1003410;-35
2022/12/25 11:04:20;;;;;;;14.80;7.40;;;;;;;-128.00;-1.00;-1.00;101046;1301;1002919;-32
2022/12/25 11:45:31;;;;;;;11.30;8.00;;;;;;;13.64;100.00;99881.62;104508;1295;557877;-37
2022/12/25 11:47:59;;;;;;;15.80;8.80;;;;;;;13.50;100.00;99871.95;104389;1297;461566;-37
2022/12/25 11:50:34;;;;;;;9.60;5.60;;;;;;;13.44;100.00;99868.12;104723;1293;22612;-35
2022/12/25 11:53:03;;;;;;;24.20;11.90;;;;;;;13.64;100.00;99856.48;104715;1294;23172;-31
2022/12/25 11:55:45;;;;;;;21.70;11.40;;;;;;;13.82;100.00;99854.81;104630;1284;22570;-32
2022/12/25 11:58:19;;;;;;;14.10;8.10;;;;;;;13.87;100.00;99851.15;104610;1304;23038;-34
2022/12/25 12:00:45;;;;;;;16.50;8.20;;;;;;;14.01;100.00;99849.75;104564;1294;23009;-35
2022/12/25 12:03:15;;;;;;;15.90;8.90;;;;;;;14.02;100.00;99850.70;104648;1304;22796;-31
2022/12/25 12:05:47;;;;;;;21.00;7.40;;;;;;;14.01;98.18;99845.84;104724;1297;25465;-35
2022/12/25 12:08:14;;;;;;;7.10;4.30;;;;;;;14.07;100.00;99845.84;104698;1292;22559;-31
2022/12/25 12:11:14;;;;;;;7.60;4.40;;;;;;;14.21;100.00;99840.06;104830;1294;24232;-33
2022/12/25 12:13:58;;;;;;;15.90;7.30;;;;;;;14.18;100.00;99838.19;104680;1300;24348;-36
2022/12/25 12:16:24;;;;;;;19.70;8.90;;;;;;;13.96;99.29;99838.86;104452;1294;22562;-36
2022/12/25 12:18:50;;;;;;;30.00;10.70;;;;;;;13.61;92.68;99837.73;104683;1303;24441;-35
2022/12/25 12:21:28;;;;;;;18.90;8.90;;;;;;;13.23;88.17;99837.52;104667;1292;23042;-35
2022/12/25 12:24:04;;;;;;;17.70;7.40;;;;;;;13.33;91.16;99834.55;104500;1304;22700;-34
2022/12/25 12:26:36;;;;;;;17.00;8.10;;;;;;;13.40;90.24;99835.64;104645;1293;23958;-32
2022/12/25 12:29:03;;;;;;;17.20;8.80;;;;;;;13.52;95.57;99839.61;104438;1303;25387;-32
2022/12/25 12:31:38;;;;;;;11.60;7.30;;;;;;;13.45;89.82;99837.65;104496;1303;22666;-35
2022/12/25 12:34:03;;;;;;;9.50;5.60;;;;;;;13.59;95.46;99840.91;104679;1294;22678;-37
2022/12/25 12:36:29;;;;;;;11.10;6.00;;;;;;;13.60;97.28;99836.73;104692;1303;22806;-36
2022/12/25 12:38:56;;;;;;;10.80;5.20;;;;;;;13.58;94.26;99833.48;104635;1293;22590;-33
2022/12/25 12:41:21;;;;;;;13.60;6.60;;;;;;;13.50;91.39;99837.57;104617;1291;25439;-36
2022/12/25 12:43:54;;;;;;;31.80;16.90;;;;;;;13.59;92.45;99837.10;104690;1294;24436;-36
2022/12/25 12:46:24;;;;;;;59.50;28.80;;;;;;;13.68;95.37;99840.55;104620;1290;22560;-30
2022/12/25 12:48:51;;;;;;;33.30;21.60;;;;;;;13.47;86.33;99840.80;104596;1294;22565;-36
2022/12/25 12:51:31;;;;;;;96.00;69.50;;;;;;;13.53;88.99;99842.19;104636;1293;24503;-36
2022/12/25 12:54:17;;;;;;;143.80;104.10;;;;;;;13.32;89.74;99836.70;104648;1304;24386;-36
2022/12/25 12:56:55;;;;;;;326.40;203.10;;;;;;;13.19;90.19;99831.71;104546;1292;22830;-32
2022/12/25 12:59:21;;;;;;;473.00;308.00;;;;;;;12.98;85.64;99829.80;104591;1285;24353;-36
2022/12/25 13:01:54;;;;;;;452.50;286.10;;;;;;;13.06;88.76;99823.52;104570;1290;24486;-32
2022/12/25 13:04:43;;;;;;;525.40;339.90;;;;;;;13.11;89.21;99824.34;104641;1289;25487;-33
2022/12/25 13:07:23;;;;;;;336.30;215.10;;;;;;;13.18;87.01;99827.80;104752;1295;23048;-36
2022/12/25 13:10:13;;;;;;;140.80;80.10;;;;;;;13.20;89.07;99828.52;104660;1294;24318;-36
2022/12/25 13:12:39;;;;;;;116.00;67.60;;;;;;;13.10;87.58;99825.56;104629;1294;22644;-36
2022/12/25 13:15:11;;;;;;;211.80;58.70;;;;;;;13.00;87.45;99827.44;104578;1294;23071;-32
2022/12/25 13:17:37;;;;;;;108.70;32.30;;;;;;;13.01;88.58;99827.48;104596;1293;22656;-33
2022/12/25 13:21:26;;;;;;;107.00;23.10;;;;;;;13.06;89.34;99828.55;103448;1305;545051;-35
2022/12/25 13:24:07;;;;;;;80.60;17.90;;;;;;;13.03;88.27;99834.34;103431;1313;23270;-35
2022/12/25 13:26:33;;;;;;;94.60;17.60;;;;;;;13.02;88.83;99837.79;103376;1302;23144;-32
2022/12/25 13:28:59;;;;;;;64.10;15.20;;;;;;;13.05;89.13;99832.52;103384;1305;24289;-34
2022/12/25 13:31:26;;;;;;;89.80;41.00;;;;;;;12.99;88.02;99821.85;103523;1316;23190;-35
2022/12/25 13:34:05;;;;;;;78.90;53.80;;;;;;;12.78;86.48;99825.90;103144;1314;453798;-35
2022/12/25 13:36:35;;;;;;;96.80;31.00;;;;;;;12.75;90.89;99820.70;103628;1313;23012;-35
2022/12/25 13:39:01;;;;;;;126.40;50.40;;;;;;;12.52;89.84;99816.91;103661;1310;24325;-35
2022/12/25 13:44:18;;;;;;;133.80;79.80;;;;;;;12.16;90.27;99817.13;103715;1303;24325;-36
2022/12/25 13:46:44;;;;;;;150.10;73.40;;;;;;;12.01;90.66;99822.04;103674;1304;23046;-36
2022/12/25 13:49:18;;;;;;;171.00;84.00;;;;;;;11.88;90.46;99820.10;103748;1310;24232;-33
2022/12/25 13:51:44;;;;;;;159.70;93.00;;;;;;;11.83;91.00;99817.48;103688;1300;22589;-32
2022/12/25 13:54:11;;;;;;;89.10;62.70;;;;;;;11.48;87.33;99830.89;103801;1313;24466;-32
2022/12/25 13:56:44;;;;;;;96.10;56.90;;;;;;;11.01;88.22;99834.60;103633;1303;23165;-33
2022/12/25 13:59:18;;;;;;;57.50;41.80;;;;;;;10.53;90.50;99840.99;103825;1303;24275;-36
2022/12/25 14:01:44;;;;;;;105.50;60.20;;;;;;;10.02;91.28;99848.52;103793;1298;24797;-36
2022/12/25 14:04:15;;;;;;;91.70;36.30;;;;;;;9.53;91.31;99852.80;103790;1313;22559;-30
2022/12/25 14:06:41;;;;;;;90.00;28.60;;;;;;;9.20;92.88;99851.27;103917;1303;25529;-35
2022/12/25 14:09:07;;;;;;;92.00;31.10;;;;;;;8.90;94.36;99844.34;103538;1313;22834;-32
2022/12/25 14:11:33;;;;;;;60.00;24.50;;;;;;;8.63;95.47;99833.86;103818;1311;22682;-35
2022/12/25 14:14:01;;;;;;;79.90;33.40;;;;;;;8.40;97.03;99821.45;103758;1300;24254;-35
2022/12/25 14:16:27;;;;;;;111.00;41.00;;;;;;;8.23;98.81;99805.25;103787;1310;22813;-32
2022/12/25 14:18:58;;;;;;;73.70;29.30;;;;;;;8.21;100.00;99802.73;103803;1304;24431;-34
2022/12/25 14:21:32;;;;;;;56.40;18.40;;;;;;;8.14;100.00;99798.56;103858;1303;22823;-35
2022/12/25 14:23:57;;;;;;;42.10;17.80;;;;;;;7.91;100.00;99798.20;103730;1297;24413;-31